Time;durP1;ratioP1;P1;durP2;ratioP2;P2;SDS_P1;SDS_P2;PMS_P1;PMS_P2;Temp;Humidity;BMP_temperature;BMP_pressure;BME280_temperature;BME280_humidity;BME280_pressure;Samples;Min_cycle;Max_cycle;Signal;HPM_P1;HPM_P2
2021/09/07 00:02:21;;;;;;;26.77;21.73;;;;;;;;;;5026879;28;20290;-90
2021/09/07 00:04:48;;;;;;;29.60;23.37;;;;;;;;;;5028125;28;20714;-90
2021/09/07 00:07:14;;;;;;;28.53;23.07;;;;;;;;;;5018459;28;20575;-90
2021/09/07 00:09:41;;;;;;;28.83;23.57;;;;;;;;;;5023418;28;20397;-90
2021/09/07 00:12:08;;;;;;;26.63;21.83;;;;;;;;;;5028990;28;20264;-90
2021/09/07 00:14:34;;;;;;;26.20;22.90;;;;;;;;;;5020286;28;20211;-90
2021/09/07 00:17:02;;;;;;;27.23;21.53;;;;;;;;;;5024857;28;20243;-89
2021/09/07 00:19:29;;;;;;;25.63;21.60;;;;;;;;;;5023897;28;20210;-89
2021/09/07 00:21:55;;;;;;;25.70;22.30;;;;;;;;;;5023975;28;20231;-90
2021/09/07 00:24:22;;;;;;;27.10;21.87;;;;;;;;;;5022269;28;20600;-89
2021/09/07 00:26:48;;;;;;;26.03;22.97;;;;;;;;;;5023815;28;20241;-90
2021/09/07 00:29:15;;;;;;;24.80;21.63;;;;;;;;;;5025305;28;20223;-90
2021/09/07 00:31:41;;;;;;;26.67;22.00;;;;;;;;;;5026370;28;20576;-90
2021/09/07 00:34:09;;;;;;;25.73;20.67;;;;;;;;;;5026373;28;20594;-90
2021/09/07 00:36:36;;;;;;;26.70;22.17;;;;;;;;;;5026454;28;20231;-90
2021/09/07 00:39:03;;;;;;;26.93;21.93;;;;;;;;;;5020340;28;20207;-90
2021/09/07 00:41:29;;;;;;;26.30;22.23;;;;;;;;;;5023015;28;20683;-90
2021/09/07 00:43:56;;;;;;;28.17;23.43;;;;;;;;;;5025510;28;20680;-90
2021/09/07 00:46:22;;;;;;;28.67;23.30;;;;;;;;;;5024698;28;20659;-90
2021/09/07 00:48:49;;;;;;;27.80;23.13;;;;;;;;;;5026444;28;20215;-90
2021/09/07 00:51:17;;;;;;;28.63;22.90;;;;;;;;;;5025444;28;20210;-90
2021/09/07 00:53:43;;;;;;;31.27;24.40;;;;;;;;;;5028831;28;20236;-90
2021/09/07 00:56:11;;;;;;;27.93;24.17;;;;;;;;;;5024596;28;20214;-90
2021/09/07 00:58:39;;;;;;;28.40;23.83;;;;;;;;;;5024985;28;20206;-89
2021/09/07 01:01:06;;;;;;;30.50;24.43;;;;;;;;;;5027966;28;20233;-90
2021/09/07 01:03:32;;;;;;;27.60;24.50;;;;;;;;;;5027601;28;20220;-90
2021/09/07 01:05:59;;;;;;;31.03;25.73;;;;;;;;;;5021821;28;20282;-90
2021/09/07 01:08:27;;;;;;;28.47;23.90;;;;;;;;;;5031258;28;20226;-90
2021/09/07 01:10:53;;;;;;;30.80;26.27;;;;;;;;;;5026730;28;20195;-90
2021/09/07 01:13:20;;;;;;;33.17;27.60;;;;;;;;;;5026674;28;20214;-91
2021/09/07 01:15:48;;;;;;;30.87;26.17;;;;;;;;;;5028552;28;20223;-90
2021/09/07 01:18:14;;;;;;;31.33;25.13;;;;;;;;;;5032846;28;20282;-90
2021/09/07 01:20:41;;;;;;;32.53;26.10;;;;;;;;;;5030961;28;20210;-90
2021/09/07 01:23:07;;;;;;;34.93;27.53;;;;;;;;;;5022694;28;20621;-90
2021/09/07 01:25:36;;;;;;;29.10;25.13;;;;;;;;;;5024322;28;20237;-89
2021/09/07 01:28:02;;;;;;;32.63;25.50;;;;;;;;;;5026235;28;20219;-90
2021/09/07 01:30:30;;;;;;;28.03;24.23;;;;;;;;;;5027236;28;20262;-90
2021/09/07 01:32:57;;;;;;;32.30;25.93;;;;;;;;;;5029407;28;20191;-90
2021/09/07 01:35:23;;;;;;;29.47;25.57;;;;;;;;;;5025351;28;20236;-90
2021/09/07 01:37:50;;;;;;;29.73;24.73;;;;;;;;;;5025582;28;20227;-90
2021/09/07 01:40:16;;;;;;;33.63;26.67;;;;;;;;;;5026286;28;20222;-89
2021/09/07 01:42:46;;;;;;;29.57;25.60;;;;;;;;;;5021658;28;20211;-90
2021/09/07 01:45:13;;;;;;;31.40;26.73;;;;;;;;;;5022974;28;20234;-90
2021/09/07 01:47:40;;;;;;;34.63;27.70;;;;;;;;;;5028011;28;20235;-90
2021/09/07 01:50:08;;;;;;;34.00;26.40;;;;;;;;;;5027128;28;20219;-91
2021/09/07 01:52:35;;;;;;;31.23;27.40;;;;;;;;;;5029455;28;20214;-90
2021/09/07 01:55:01;;;;;;;30.83;24.43;;;;;;;;;;5026398;28;20219;-90
2021/09/07 01:57:28;;;;;;;31.37;25.33;;;;;;;;;;5028645;28;20211;-90
2021/09/07 01:59:56;;;;;;;29.40;25.87;;;;;;;;;;5027490;28;20205;-90
2021/09/07 02:02:23;;;;;;;30.10;25.20;;;;;;;;;;5030289;28;20208;-90
2021/09/07 02:04:49;;;;;;;37.43;25.63;;;;;;;;;;5030048;28;20229;-90
2021/09/07 02:07:16;;;;;;;32.37;26.73;;;;;;;;;;5025095;28;20223;-90
2021/09/07 02:09:43;;;;;;;29.43;25.33;;;;;;;;;;5023406;28;20217;-89
2021/09/07 02:12:09;;;;;;;32.23;26.37;;;;;;;;;;5025387;28;20217;-90
2021/09/07 02:14:36;;;;;;;36.67;27.57;;;;;;;;;;5028240;28;20577;-90
2021/09/07 02:17:04;;;;;;;32.80;25.40;;;;;;;;;;5029315;28;20236;-90
2021/09/07 02:19:31;;;;;;;31.30;26.20;;;;;;;;;;5028806;28;20215;-90
2021/09/07 02:21:57;;;;;;;34.47;27.03;;;;;;;;;;5020618;28;20229;-90
2021/09/07 02:24:24;;;;;;;31.60;25.87;;;;;;;;;;5026078;28;20285;-90
2021/09/07 02:26:50;;;;;;;29.30;25.70;;;;;;;;;;5028314;28;20218;-91
2021/09/07 02:29:17;;;;;;;34.30;26.57;;;;;;;;;;5026339;28;20205;-90
2021/09/07 02:31:43;;;;;;;30.20;26.80;;;;;;;;;;5020933;28;20219;-90
2021/09/07 02:34:11;;;;;;;33.03;26.13;;;;;;;;;;5025187;28;20813;-90
2021/09/07 02:36:38;;;;;;;32.37;26.30;;;;;;;;;;5028051;28;20241;-90
2021/09/07 02:39:04;;;;;;;28.30;25.30;;;;;;;;;;5026183;28;20225;-90
2021/09/07 02:41:31;;;;;;;32.27;27.70;;;;;;;;;;5025583;28;20208;-90
2021/09/07 02:43:58;;;;;;;31.53;27.60;;;;;;;;;;5020751;28;20226;-90
2021/09/07 02:46:25;;;;;;;34.57;27.27;;;;;;;;;;5026750;28;20236;-91
2021/09/07 02:48:52;;;;;;;37.60;27.97;;;;;;;;;;5032499;28;20203;-90
2021/09/07 02:51:20;;;;;;;34.17;27.17;;;;;;;;;;5029635;28;20240;-92
2021/09/07 02:53:46;;;;;;;29.13;24.73;;;;;;;;;;5022646;28;20202;-92
2021/09/07 02:56:13;;;;;;;35.70;27.40;;;;;;;;;;5026002;28;20214;-91
2021/09/07 02:58:39;;;;;;;32.87;27.63;;;;;;;;;;5028053;28;20209;-91
2021/09/07 03:01:06;;;;;;;29.50;25.00;;;;;;;;;;5028728;28;20225;-92
2021/09/07 03:03:33;;;;;;;31.13;26.87;;;;;;;;;;5028529;28;20219;-91
2021/09/07 03:06:01;;;;;;;32.23;25.60;;;;;;;;;;5024575;28;20241;-92
2021/09/07 03:08:29;;;;;;;32.50;26.67;;;;;;;;;;5024358;28;20295;-91
2021/09/07 03:10:55;;;;;;;39.87;27.20;;;;;;;;;;5019195;28;20263;-91
2021/09/07 03:13:22;;;;;;;32.13;27.23;;;;;;;;;;5024458;28;20266;-91
2021/09/07 03:15:49;;;;;;;32.13;26.23;;;;;;;;;;5020462;28;20216;-92
2021/09/07 03:18:15;;;;;;;33.70;26.27;;;;;;;;;;5026173;28;20215;-91
2021/09/07 03:20:42;;;;;;;34.27;27.87;;;;;;;;;;5019360;28;20223;-91
2021/09/07 03:23:09;;;;;;;33.73;27.30;;;;;;;;;;5025870;28;20222;-91
2021/09/07 03:25:37;;;;;;;32.97;27.20;;;;;;;;;;5026851;28;20706;-91
2021/09/07 03:28:04;;;;;;;38.97;28.57;;;;;;;;;;5020593;28;20212;-91
2021/09/07 03:30:31;;;;;;;36.53;29.17;;;;;;;;;;5028007;28;20676;-89
2021/09/07 03:32:57;;;;;;;34.97;27.57;;;;;;;;;;5025549;28;20208;-90
2021/09/07 03:35:24;;;;;;;33.70;28.13;;;;;;;;;;5029211;28;20220;-90
2021/09/07 03:37:51;;;;;;;33.37;26.37;;;;;;;;;;5026894;28;20235;-90
2021/09/07 03:40:17;;;;;;;31.50;26.60;;;;;;;;;;5024408;28;20216;-90
2021/09/07 03:42:46;;;;;;;33.90;28.50;;;;;;;;;;5029525;28;20191;-92
2021/09/07 03:45:14;;;;;;;35.93;29.57;;;;;;;;;;5034727;28;20236;-91
2021/09/07 03:47:41;;;;;;;34.13;27.67;;;;;;;;;;5026802;28;20259;-90
2021/09/07 03:50:10;;;;;;;34.37;26.63;;;;;;;;;;5025182;28;20199;-90
2021/09/07 03:52:37;;;;;;;34.60;26.33;;;;;;;;;;5025418;28;20250;-90
2021/09/07 03:55:04;;;;;;;28.70;24.23;;;;;;;;;;5026728;28;20211;-91
2021/09/07 03:57:31;;;;;;;32.67;24.87;;;;;;;;;;5022005;28;20215;-91
2021/09/07 03:59:59;;;;;;;30.67;24.53;;;;;;;;;;5026890;28;20213;-91
2021/09/07 04:02:26;;;;;;;29.20;23.33;;;;;;;;;;5027865;28;20673;-91
2021/09/07 04:04:54;;;;;;;29.83;23.37;;;;;;;;;;5028573;28;20216;-91
2021/09/07 04:07:20;;;;;;;35.33;25.03;;;;;;;;;;5025214;28;20242;-90
2021/09/07 04:09:47;;;;;;;30.50;23.83;;;;;;;;;;5029261;28;20226;-91
2021/09/07 04:12:14;;;;;;;27.73;23.60;;;;;;;;;;5027992;28;20239;-91
2021/09/07 04:14:41;;;;;;;30.93;23.97;;;;;;;;;;5028422;28;20306;-90
2021/09/07 04:17:09;;;;;;;27.47;22.87;;;;;;;;;;5024977;28;20255;-90
2021/09/07 04:19:36;;;;;;;28.27;22.97;;;;;;;;;;5028299;28;20278;-90
2021/09/07 04:22:03;;;;;;;26.70;23.60;;;;;;;;;;5029601;28;20220;-91
2021/09/07 04:24:30;;;;;;;30.13;23.50;;;;;;;;;;5027162;28;20207;-90
2021/09/07 04:26:58;;;;;;;28.53;23.00;;;;;;;;;;5024613;28;20322;-90
2021/09/07 04:29:25;;;;;;;33.50;22.87;;;;;;;;;;5025193;28;20247;-91
2021/09/07 04:31:51;;;;;;;30.42;24.85;;;;;;;;;;5031341;28;20847;-90
2021/09/07 04:34:20;;;;;;;32.33;23.90;;;;;;;;;;5031368;28;20217;-90
2021/09/07 04:36:47;;;;;;;27.30;23.17;;;;;;;;;;5030880;28;20610;-90
2021/09/07 04:39:13;;;;;;;31.00;23.67;;;;;;;;;;5031812;28;20188;-90
2021/09/07 04:41:40;;;;;;;32.50;23.53;;;;;;;;;;5028739;28;20303;-90
2021/09/07 04:44:07;;;;;;;30.60;24.37;;;;;;;;;;5031996;28;20207;-90
2021/09/07 04:46:33;;;;;;;30.60;24.13;;;;;;;;;;5034254;28;20223;-89
2021/09/07 04:49:00;;;;;;;31.80;23.10;;;;;;;;;;5031740;28;20207;-90
2021/09/07 04:51:27;;;;;;;29.10;22.90;;;;;;;;;;5034524;28;20220;-90
2021/09/07 04:53:56;;;;;;;28.03;23.00;;;;;;;;;;5031377;28;20211;-90
2021/09/07 04:56:22;;;;;;;29.60;24.67;;;;;;;;;;5027588;28;20334;-90
2021/09/07 04:58:49;;;;;;;27.20;22.43;;;;;;;;;;5026185;28;20579;-90
2021/09/07 05:01:15;;;;;;;29.30;22.60;;;;;;;;;;5022846;28;20742;-90
2021/09/07 05:03:42;;;;;;;28.40;24.20;;;;;;;;;;5031666;28;20214;-90
2021/09/07 05:06:09;;;;;;;30.77;23.83;;;;;;;;;;5031517;28;20237;-90
2021/09/07 05:08:36;;;;;;;30.70;24.27;;;;;;;;;;5026239;28;20204;-90
2021/09/07 05:11:03;;;;;;;28.27;23.77;;;;;;;;;;5025936;28;20190;-90
2021/09/07 05:13:30;;;;;;;30.70;23.10;;;;;;;;;;5034515;28;20201;-90
2021/09/07 05:15:57;;;;;;;26.37;21.80;;;;;;;;;;5028568;28;20259;-91
2021/09/07 05:18:24;;;;;;;29.87;22.53;;;;;;;;;;5031085;28;20208;-89
2021/09/07 05:20:50;;;;;;;29.60;22.87;;;;;;;;;;5029160;28;20209;-89
2021/09/07 05:23:17;;;;;;;28.70;22.53;;;;;;;;;;5035645;28;20204;-90
2021/09/07 05:25:45;;;;;;;27.93;22.60;;;;;;;;;;5030265;28;20596;-90
2021/09/07 05:28:11;;;;;;;27.53;23.43;;;;;;;;;;5032443;28;20208;-90
2021/09/07 05:30:38;;;;;;;29.83;23.97;;;;;;;;;;5033925;28;20207;-90
2021/09/07 05:33:05;;;;;;;29.57;23.50;;;;;;;;;;5032088;28;20655;-90
2021/09/07 05:35:32;;;;;;;33.60;24.53;;;;;;;;;;5030890;28;20213;-90
2021/09/07 05:37:59;;;;;;;32.67;25.17;;;;;;;;;;5030142;28;20231;-90
2021/09/07 05:40:28;;;;;;;30.30;24.10;;;;;;;;;;5030505;28;20207;-90
2021/09/07 05:42:56;;;;;;;31.93;25.13;;;;;;;;;;5031813;28;20203;-90
2021/09/07 05:45:22;;;;;;;33.40;25.20;;;;;;;;;;5029264;28;20210;-90
2021/09/07 05:47:49;;;;;;;29.27;23.53;;;;;;;;;;5029139;28;20304;-90
2021/09/07 05:50:16;;;;;;;32.37;24.10;;;;;;;;;;5026576;28;20212;-90
2021/09/07 05:52:43;;;;;;;48.17;24.90;;;;;;;;;;5031035;28;20240;-90
2021/09/07 05:55:11;;;;;;;35.87;24.90;;;;;;;;;;5031666;28;20210;-90
2021/09/07 05:57:38;;;;;;;30.23;24.73;;;;;;;;;;5041156;28;20218;-90
2021/09/07 06:00:08;;;;;;;30.33;24.30;;;;;;;;;;5026371;28;20225;-90
2021/09/07 06:02:35;;;;;;;31.97;24.00;;;;;;;;;;5032137;28;20200;-90
2021/09/07 06:05:01;;;;;;;31.47;24.43;;;;;;;;;;5025293;28;20279;-89
2021/09/07 06:07:28;;;;;;;26.93;22.13;;;;;;;;;;5027882;28;20259;-89
2021/09/07 06:09:54;;;;;;;26.67;22.87;;;;;;;;;;5023893;28;20224;-90
2021/09/07 06:12:21;;;;;;;25.73;22.93;;;;;;;;;;5027452;28;20573;-90
2021/09/07 06:14:47;;;;;;;27.37;23.13;;;;;;;;;;5031118;28;20240;-90
2021/09/07 06:17:15;;;;;;;26.03;20.77;;;;;;;;;;5027544;28;20614;-93
2021/09/07 06:19:43;;;;;;;26.03;21.67;;;;;;;;;;5030301;28;20711;-91
2021/09/07 06:22:09;;;;;;;27.97;22.27;;;;;;;;;;5023687;28;20234;-90
2021/09/07 06:24:36;;;;;;;25.97;22.10;;;;;;;;;;5022971;28;20222;-90
2021/09/07 06:27:03;;;;;;;28.53;21.63;;;;;;;;;;5031868;28;20235;-90
2021/09/07 06:29:30;;;;;;;25.03;22.37;;;;;;;;;;5027750;28;20217;-92
2021/09/07 06:31:56;;;;;;;29.10;22.60;;;;;;;;;;5031165;28;20208;-90
2021/09/07 06:34:25;;;;;;;24.07;21.23;;;;;;;;;;5030860;28;20210;-91
2021/09/07 06:36:52;;;;;;;26.80;22.90;;;;;;;;;;5030705;28;20242;-90
2021/09/07 06:39:19;;;;;;;27.83;22.97;;;;;;;;;;5029167;28;20219;-91
2021/09/07 06:41:45;;;;;;;24.20;21.40;;;;;;;;;;5027578;28;20563;-90
2021/09/07 06:44:12;;;;;;;33.00;23.33;;;;;;;;;;5028372;28;20214;-90
2021/09/07 06:46:39;;;;;;;23.93;21.33;;;;;;;;;;5030615;28;20667;-91
2021/09/07 06:49:07;;;;;;;41.63;22.40;;;;;;;;;;5027532;28;20221;-91
2021/09/07 06:51:35;;;;;;;24.30;20.30;;;;;;;;;;5028593;28;20207;-90
2021/09/07 06:54:02;;;;;;;22.40;19.53;;;;;;;;;;5030223;28;20216;-90
2021/09/07 06:56:28;;;;;;;21.73;18.60;;;;;;;;;;5027191;28;20207;-90
2021/09/07 06:58:55;;;;;;;23.60;19.90;;;;;;;;;;5023246;28;20644;-90
2021/09/07 07:01:21;;;;;;;23.53;19.50;;;;;;;;;;5022677;28;20212;-86
2021/09/07 07:03:48;;;;;;;26.17;20.33;;;;;;;;;;5038238;28;20195;-90
2021/09/07 07:06:15;;;;;;;20.47;18.20;;;;;;;;;;5029807;28;20235;-90
2021/09/07 07:08:43;;;;;;;24.30;18.87;;;;;;;;;;5027511;28;20227;-90
2021/09/07 07:11:09;;;;;;;25.50;20.20;;;;;;;;;;5025298;28;20310;-91
2021/09/07 07:13:35;;;;;;;47.20;21.17;;;;;;;;;;5022427;28;20203;-90
2021/09/07 07:16:02;;;;;;;21.83;19.23;;;;;;;;;;5023587;28;20607;-91
2021/09/07 07:18:28;;;;;;;22.00;18.83;;;;;;;;;;5026527;28;20211;-91
2021/09/07 07:20:55;;;;;;;20.73;18.53;;;;;;;;;;5031792;28;20243;-90
2021/09/07 07:23:21;;;;;;;22.93;18.60;;;;;;;;;;5026506;28;20210;-89
2021/09/07 07:25:49;;;;;;;20.33;17.33;;;;;;;;;;5027383;28;20208;-90
2021/09/07 07:28:16;;;;;;;20.23;17.10;;;;;;;;;;5018933;28;20209;-90
2021/09/07 07:30:43;;;;;;;22.17;16.63;;;;;;;;;;5029865;28;20213;-90
2021/09/07 07:33:10;;;;;;;24.13;18.27;;;;;;;;;;5026286;28;20689;-90
2021/09/07 07:35:36;;;;;;;29.53;19.20;;;;;;;;;;5030024;28;20247;-90
2021/09/07 07:38:03;;;;;;;21.97;18.77;;;;;;;;;;5030090;28;20626;-90
2021/09/07 07:40:30;;;;;;;20.43;17.30;;;;;;;;;;5029405;28;20596;-90
2021/09/07 07:42:58;;;;;;;20.07;17.37;;;;;;;;;;5029419;28;20219;-90
2021/09/07 07:45:25;;;;;;;18.90;16.60;;;;;;;;;;5027648;28;20217;-90
2021/09/07 07:47:51;;;;;;;19.57;15.93;;;;;;;;;;5023937;28;20316;-90
2021/09/07 07:50:18;;;;;;;26.03;17.20;;;;;;;;;;5023281;28;20237;-91
2021/09/07 07:52:45;;;;;;;19.87;16.37;;;;;;;;;;5021032;28;20234;-90
2021/09/07 07:55:12;;;;;;;18.93;16.70;;;;;;;;;;5028679;28;20217;-90
2021/09/07 07:57:39;;;;;;;22.93;16.97;;;;;;;;;;5022033;28;20214;-90
2021/09/07 08:00:08;;;;;;;19.43;16.17;;;;;;;;;;5026397;28;20209;-90
2021/09/07 08:02:35;;;;;;;19.30;16.27;;;;;;;;;;5023231;28;20197;-90
2021/09/07 08:05:01;;;;;;;20.20;16.03;;;;;;;;;;5023470;28;20220;-90
2021/09/07 08:07:27;;;;;;;25.23;16.40;;;;;;;;;;5026638;28;20245;-90
2021/09/07 08:09:54;;;;;;;20.60;17.00;;;;;;;;;;5037680;28;20221;-90
2021/09/07 08:12:22;;;;;;;18.47;15.90;;;;;;;;;;5039599;28;20207;-90
2021/09/07 08:14:49;;;;;;;20.03;15.87;;;;;;;;;;5029637;28;20211;-90
2021/09/07 08:17:17;;;;;;;18.77;16.77;;;;;;;;;;5029794;28;20241;-90
2021/09/07 08:19:44;;;;;;;17.93;15.80;;;;;;;;;;5030401;28;20245;-91
2021/09/07 08:22:11;;;;;;;30.30;16.93;;;;;;;;;;5028317;28;20229;-91
2021/09/07 08:24:38;;;;;;;27.37;17.00;;;;;;;;;;5028488;28;20214;-90
2021/09/07 08:27:05;;;;;;;24.93;16.63;;;;;;;;;;5027240;28;20235;-89
2021/09/07 08:29:32;;;;;;;28.03;17.60;;;;;;;;;;5032662;28;20215;-90
2021/09/07 08:31:58;;;;;;;25.33;19.63;;;;;;;;;;5032795;28;20661;-89
2021/09/07 08:34:26;;;;;;;23.57;17.17;;;;;;;;;;5030716;28;20677;-90
2021/09/07 08:36:53;;;;;;;23.17;18.70;;;;;;;;;;5025965;28;20214;-90
2021/09/07 08:39:19;;;;;;;21.30;19.00;;;;;;;;;;5030126;28;20576;-89
2021/09/07 08:41:46;;;;;;;24.67;18.60;;;;;;;;;;5028688;28;20215;-90
2021/09/07 08:44:17;;;;;;;32.40;17.57;;;;;;;;;;5029903;28;20318;-89
2021/09/07 08:46:44;;;;;;;22.60;17.33;;;;;;;;;;5028474;28;20216;-91
2021/09/07 08:49:13;;;;;;;20.57;17.73;;;;;;;;;;5029887;28;20223;-90
2021/09/07 08:51:40;;;;;;;23.33;16.87;;;;;;;;;;5033407;28;20231;-90
2021/09/07 08:54:07;;;;;;;24.03;17.37;;;;;;;;;;5029394;28;20200;-90
2021/09/07 08:56:33;;;;;;;20.13;18.07;;;;;;;;;;5029185;28;20213;-90
2021/09/07 08:59:00;;;;;;;19.87;17.57;;;;;;;;;;5023612;28;20202;-90
2021/09/07 09:01:27;;;;;;;18.80;16.90;;;;;;;;;;5029738;28;20216;-90
2021/09/07 09:03:53;;;;;;;17.97;16.17;;;;;;;;;;5030793;28;20244;-91
2021/09/07 09:06:25;;;;;;;19.60;16.83;;;;;;;;;;5026350;28;20229;-91
2021/09/07 09:09:02;;;;;;;21.03;18.27;;;;;;;;;;5029329;28;20219;-90
2021/09/07 09:11:28;;;;;;;25.07;18.47;;;;;;;;;;5025738;28;20251;-90
2021/09/07 09:13:57;;;;;;;20.57;17.97;;;;;;;;;;5028476;28;20211;-91
2021/09/07 09:16:32;;;;;;;21.53;17.87;;;;;;;;;;5020790;28;20242;-90
2021/09/07 09:18:59;;;;;;;20.83;18.10;;;;;;;;;;5028235;28;20221;-90
2021/09/07 09:21:28;;;;;;;59.23;21.63;;;;;;;;;;5026460;28;20229;-91
2021/09/07 09:24:18;;;;;;;20.87;17.33;;;;;;;;;;5029722;28;20578;-90
2021/09/07 09:26:53;;;;;;;23.17;20.07;;;;;;;;;;5021798;28;20250;-90
2021/09/07 09:29:21;;;;;;;21.53;18.23;;;;;;;;;;5026834;28;20216;-90
2021/09/07 09:32:07;;;;;;;26.33;18.97;;;;;;;;;;5023749;28;20241;-90
2021/09/07 09:34:36;;;;;;;24.70;20.63;;;;;;;;;;5022138;28;20211;-90
2021/09/07 09:37:05;;;;;;;25.70;22.93;;;;;;;;;;5028237;28;20233;-90
2021/09/07 09:39:40;;;;;;;22.60;20.20;;;;;;;;;;5028694;28;20208;-90
2021/09/07 09:42:08;;;;;;;21.73;19.43;;;;;;;;;;5028042;28;20780;-91
2021/09/07 09:44:34;;;;;;;22.37;18.77;;;;;;;;;;5028216;28;20204;-91
2021/09/07 09:47:02;;;;;;;25.07;20.67;;;;;;;;;;5025898;28;20243;-90
2021/09/07 09:49:30;;;;;;;22.33;20.10;;;;;;;;;;5025706;28;20214;-90
2021/09/07 09:52:02;;;;;;;28.33;20.17;;;;;;;;;;5026586;28;20221;-91
2021/09/07 09:54:30;;;;;;;22.27;18.90;;;;;;;;;;5030595;28;20207;-90
2021/09/07 09:57:01;;;;;;;24.77;20.00;;;;;;;;;;5023952;28;20228;-90
2021/09/07 09:59:28;;;;;;;22.30;19.80;;;;;;;;;;5019907;28;20202;-89
2021/09/07 10:01:56;;;;;;;22.83;20.42;;;;;;;;;;5027854;28;20485;-90
2021/09/07 10:04:24;;;;;;;33.90;20.50;;;;;;;;;;5022328;28;20213;-90
2021/09/07 10:06:52;;;;;;;24.87;18.30;;;;;;;;;;5030218;28;20239;-90
2021/09/07 10:09:19;;;;;;;20.73;18.53;;;;;;;;;;5029398;28;20217;-90
2021/09/07 10:11:50;;;;;;;20.30;18.13;;;;;;;;;;5025282;28;20245;-90
2021/09/07 10:14:20;;;;;;;21.00;18.57;;;;;;;;;;5023437;28;20217;-91
2021/09/07 10:16:53;;;;;;;21.50;19.17;;;;;;;;;;5027983;28;20247;-91
2021/09/07 10:19:44;;;;;;;25.87;18.77;;;;;;;;;;5025860;28;20214;-89
2021/09/07 10:24:59;;;;;;;20.23;18.17;;;;;;;;;;5029372;28;20243;-90
2021/09/07 10:28:05;;;;;;;30.03;18.33;;;;;;;;;;5024943;28;20238;-90
2021/09/07 10:31:16;;;;;;;20.87;18.77;;;;;;;;;;5028310;28;20222;-90
2021/09/07 10:33:46;;;;;;;21.13;16.30;;;;;;;;;;5029202;28;20296;-93
2021/09/07 10:36:16;;;;;;;18.47;16.67;;;;;;;;;;5028298;28;20233;-91
2021/09/07 10:38:44;;;;;;;18.03;15.40;;;;;;;;;;5022526;28;20221;-91
2021/09/07 10:41:31;;;;;;;17.87;16.03;;;;;;;;;;5028680;28;20227;-92
2021/09/07 10:43:59;;;;;;;21.90;16.80;;;;;;;;;;5026822;28;20208;-91
2021/09/07 10:46:48;;;;;;;16.27;14.60;;;;;;;;;;5022799;28;20248;-89
2021/09/07 10:52:13;;;;;;;17.87;16.17;;;;;;;;;;5024199;28;20245;-91
2021/09/07 10:54:47;;;;;;;31.10;18.67;;;;;;;;;;5028787;28;20210;-90
2021/09/07 10:57:56;;;;;;;18.07;16.30;;;;;;;;;;5026977;28;20205;-91
2021/09/07 11:00:40;;;;;;;17.73;15.93;;;;;;;;;;5028013;28;20248;-90
2021/09/07 11:03:10;;;;;;;18.47;16.80;;;;;;;;;;5031034;28;20214;-90
2021/09/07 11:05:47;;;;;;;17.87;14.93;;;;;;;;;;5026918;28;20226;-90
2021/09/07 11:08:19;;;;;;;20.20;16.13;;;;;;;;;;5030966;28;20311;-91
2021/09/07 11:10:49;;;;;;;21.60;16.37;;;;;;;;;;5027380;28;20337;-90
2021/09/07 11:13:24;;;;;;;17.07;15.20;;;;;;;;;;5031413;28;20209;-90
2021/09/07 11:15:52;;;;;;;16.50;14.77;;;;;;;;;;5028091;28;20216;-90
2021/09/07 11:18:25;;;;;;;18.97;16.97;;;;;;;;;;5025493;28;20741;-90
2021/09/07 11:20:52;;;;;;;17.80;15.90;;;;;;;;;;5024612;28;20211;-90
2021/09/07 11:23:20;;;;;;;20.07;16.73;;;;;;;;;;5025836;28;20218;-90
2021/09/07 11:25:48;;;;;;;16.80;15.10;;;;;;;;;;5025042;28;20213;-90
2021/09/07 11:28:17;;;;;;;17.23;15.63;;;;;;;;;;5030185;28;20238;-90
2021/09/07 11:30:47;;;;;;;18.43;16.33;;;;;;;;;;5028902;28;20211;-90
2021/09/07 11:33:16;;;;;;;18.60;16.43;;;;;;;;;;5030187;28;20215;-90
2021/09/07 11:35:45;;;;;;;18.20;15.20;;;;;;;;;;5026193;28;20227;-90
2021/09/07 11:38:14;;;;;;;16.50;14.80;;;;;;;;;;5027542;28;20623;-90
2021/09/07 11:40:46;;;;;;;18.10;14.30;;;;;;;;;;5027390;28;20222;-90
2021/09/07 11:43:14;;;;;;;16.60;14.90;;;;;;;;;;5024149;28;20286;-90
2021/09/07 11:45:41;;;;;;;16.57;14.87;;;;;;;;;;5028863;28;20210;-90
2021/09/07 11:48:09;;;;;;;22.27;14.90;;;;;;;;;;5029456;28;20237;-91
2021/09/07 11:50:37;;;;;;;15.27;13.77;;;;;;;;;;5028731;28;20210;-91
2021/09/07 11:53:09;;;;;;;16.90;15.23;;;;;;;;;;5022069;28;20239;-90
2021/09/07 11:55:44;;;;;;;16.50;14.93;;;;;;;;;;5022563;28;20211;-91
2021/09/07 11:58:23;;;;;;;15.93;14.27;;;;;;;;;;5023621;28;20301;-91
2021/09/07 12:01:08;;;;;;;16.33;14.03;;;;;;;;;;5026909;28;20186;-91
2021/09/07 12:03:41;;;;;;;15.43;14.03;;;;;;;;;;5024492;28;20223;-90
2021/09/07 12:06:11;;;;;;;15.67;13.87;;;;;;;;;;5028675;28;20317;-90
2021/09/07 12:08:41;;;;;;;17.10;13.87;;;;;;;;;;5026110;28;20210;-91
2021/09/07 12:11:10;;;;;;;14.97;12.87;;;;;;;;;;5021433;28;20197;-91
2021/09/07 12:13:36;;;;;;;15.53;13.80;;;;;;;;;;5025172;28;20214;-91
2021/09/07 12:16:04;;;;;;;15.47;14.13;;;;;;;;;;5028208;28;20221;-91
2021/09/07 12:18:36;;;;;;;16.47;14.87;;;;;;;;;;5016227;28;20203;-91
2021/09/07 12:21:16;;;;;;;14.90;13.10;;;;;;;;;;5022718;28;20218;-91
2021/09/07 12:23:46;;;;;;;15.57;13.77;;;;;;;;;;5023713;28;20276;-91
2021/09/07 12:26:13;;;;;;;14.83;13.40;;;;;;;;;;5026498;28;20195;-90
2021/09/07 12:28:40;;;;;;;16.23;14.53;;;;;;;;;;5025981;28;20238;-90
2021/09/07 12:31:12;;;;;;;15.20;13.10;;;;;;;;;;5019885;28;20231;-91
2021/09/07 12:33:50;;;;;;;15.37;13.70;;;;;;;;;;5025446;28;20547;-91
2021/09/07 12:36:18;;;;;;;15.67;14.10;;;;;;;;;;5022003;28;20237;-91
2021/09/07 12:38:47;;;;;;;21.43;14.37;;;;;;;;;;5024948;28;20207;-91
2021/09/07 12:41:16;;;;;;;14.37;12.87;;;;;;;;;;5019330;28;20220;-91
2021/09/07 12:43:46;;;;;;;15.27;13.50;;;;;;;;;;5032501;28;20203;-91
2021/09/07 12:46:15;;;;;;;16.53;15.03;;;;;;;;;;5037145;28;20276;-91
2021/09/07 12:48:43;;;;;;;17.03;14.93;;;;;;;;;;5028820;28;20235;-91
2021/09/07 12:51:12;;;;;;;15.67;14.33;;;;;;;;;;5025915;28;20250;-91
2021/09/07 12:53:41;;;;;;;16.97;15.37;;;;;;;;;;5028862;28;20274;-91
2021/09/07 12:56:12;;;;;;;16.67;15.00;;;;;;;;;;5028462;28;20207;-90
2021/09/07 12:58:42;;;;;;;15.10;13.80;;;;;;;;;;5029428;28;20215;-91
2021/09/07 13:01:10;;;;;;;14.40;13.10;;;;;;;;;;5032695;28;20677;-91
2021/09/07 13:03:38;;;;;;;14.13;12.73;;;;;;;;;;5035034;28;20657;-90
2021/09/07 13:06:08;;;;;;;15.50;14.00;;;;;;;;;;5029254;28;20220;-90
2021/09/07 13:08:37;;;;;;;32.80;14.97;;;;;;;;;;5032817;28;20229;-90
2021/09/07 13:11:04;;;;;;;15.47;13.97;;;;;;;;;;5025893;28;20215;-90
2021/09/07 13:13:33;;;;;;;14.80;13.23;;;;;;;;;;5032373;28;20307;-90
2021/09/07 13:16:00;;;;;;;16.43;13.37;;;;;;;;;;5030173;28;20210;-90
2021/09/07 13:18:28;;;;;;;13.83;12.63;;;;;;;;;;5031006;28;20678;-90
2021/09/07 13:20:55;;;;;;;16.13;14.57;;;;;;;;;;5031275;28;20214;-90
2021/09/07 13:23:22;;;;;;;16.03;14.20;;;;;;;;;;5031987;28;20214;-90
2021/09/07 13:25:49;;;;;;;15.43;13.80;;;;;;;;;;5032384;28;20270;-90
2021/09/07 13:28:17;;;;;;;14.47;13.00;;;;;;;;;;5027386;28;20229;-90
2021/09/07 13:30:45;;;;;;;15.47;13.67;;;;;;;;;;5030734;28;20224;-89
2021/09/07 13:33:12;;;;;;;19.63;14.87;;;;;;;;;;5024274;28;20208;-90
2021/09/07 13:35:39;;;;;;;15.63;13.27;;;;;;;;;;5025478;28;20233;-90
2021/09/07 13:38:06;;;;;;;15.67;14.17;;;;;;;;;;5029423;28;20226;-90
2021/09/07 13:40:34;;;;;;;16.17;13.50;;;;;;;;;;5028942;28;20200;-90
2021/09/07 13:43:01;;;;;;;13.33;12.17;;;;;;;;;;5023558;28;20214;-91
2021/09/07 13:45:28;;;;;;;12.43;11.23;;;;;;;;;;5029234;28;20230;-90
2021/09/07 13:47:56;;;;;;;13.50;12.33;;;;;;;;;;5029354;28;20218;-90
2021/09/07 13:50:23;;;;;;;13.50;12.20;;;;;;;;;;5028915;28;20192;-89
2021/09/07 13:52:50;;;;;;;14.83;13.37;;;;;;;;;;5035786;28;20219;-89
2021/09/07 13:55:16;;;;;;;14.07;12.77;;;;;;;;;;5044024;28;20212;-89
2021/09/07 13:57:43;;;;;;;12.90;11.67;;;;;;;;;;5040619;28;20559;-89
2021/09/07 14:00:11;;;;;;;15.03;13.10;;;;;;;;;;5032428;28;20249;-90
2021/09/07 14:02:41;;;;;;;13.67;12.37;;;;;;;;;;5033861;28;20223;-89
2021/09/07 14:05:11;;;;;;;16.07;14.40;;;;;;;;;;5032599;28;20735;-90
2021/09/07 14:07:37;;;;;;;15.10;13.60;;;;;;;;;;5032917;28;20228;-90
2021/09/07 14:10:05;;;;;;;19.47;17.53;;;;;;;;;;5024555;28;20650;-89
2021/09/07 14:12:32;;;;;;;20.23;17.00;;;;;;;;;;5034283;28;20203;-90
2021/09/07 14:14:59;;;;;;;17.40;15.83;;;;;;;;;;5029172;28;20203;-92
2021/09/07 14:17:26;;;;;;;17.10;15.30;;;;;;;;;;5025005;28;20245;-90
2021/09/07 14:19:53;;;;;;;17.63;15.97;;;;;;;;;;5025680;28;20222;-91
2021/09/07 14:22:21;;;;;;;17.00;15.43;;;;;;;;;;5033209;28;20234;-90
2021/09/07 14:24:47;;;;;;;21.23;15.13;;;;;;;;;;5031687;28;20217;-90
2021/09/07 14:27:14;;;;;;;15.50;13.93;;;;;;;;;;5029187;28;20225;-90
2021/09/07 14:29:41;;;;;;;15.47;13.87;;;;;;;;;;5029590;28;20227;-90